Time;durP1;ratioP1;P1;durP2;ratioP2;P2;SDS_P1;SDS_P2;PMS_P1;PMS_P2;Temp;Humidity;BMP_temperature;BMP_pressure;BME280_temperature;BME280_humidity;BME280_pressure;Samples;Min_cycle;Max_cycle;Signal;HPM_P1;HPM_P2
2023/07/21 00:00:00;;;;;;;12.07;4.30;;;;;;;13.57;57.60;100003.34;4976447;28;20053;-44
2023/07/21 00:02:27;;;;;;;10.20;4.95;;;;;;;13.55;57.52;100007.75;4980404;28;20431;-42
2023/07/21 00:04:54;;;;;;;10.32;4.50;;;;;;;13.51;57.73;100001.69;4976419;28;20042;-45
2023/07/21 00:07:24;;;;;;;11.88;4.60;;;;;;;13.46;57.57;100004.38;4981884;28;20053;-46
2023/07/21 00:09:52;;;;;;;13.13;4.28;;;;;;;13.44;57.60;100005.28;4971434;28;20043;-45
2023/07/21 00:12:18;;;;;;;11.43;3.60;;;;;;;13.43;57.61;100003.53;4976202;28;20042;-45
2023/07/21 00:14:45;;;;;;;13.75;4.60;;;;;;;13.40;57.54;100007.06;4972554;28;20058;-43
2023/07/21 00:17:12;;;;;;;12.45;4.45;;;;;;;13.35;57.96;100001.91;4977826;28;20392;-46
2023/07/21 00:19:38;;;;;;;10.45;3.92;;;;;;;13.32;58.54;100004.59;4972252;28;20454;-42
2023/07/21 00:22:05;;;;;;;9.68;3.80;;;;;;;13.30;58.07;99997.66;4974360;28;20069;-44
2023/07/21 00:24:32;;;;;;;11.23;4.15;;;;;;;13.27;58.08;99998.56;4983142;28;20054;-45
2023/07/21 00:27:01;;;;;;;12.68;3.97;;;;;;;13.23;58.54;99997.75;4972649;28;20054;-43
2023/07/21 00:29:29;;;;;;;11.35;3.63;;;;;;;13.20;58.66;100002.13;4977743;28;20058;-45
2023/07/21 00:31:56;;;;;;;11.23;3.65;;;;;;;13.16;58.82;99995.25;4979928;28;20047;-44
2023/07/21 00:34:24;;;;;;;10.85;3.80;;;;;;;13.12;58.57;99999.66;4984079;28;20411;-44
2023/07/21 00:36:55;;;;;;;10.50;3.63;;;;;;;13.08;58.91;99992.78;4977068;28;20089;-46
2023/07/21 00:39:22;;;;;;;9.13;3.55;;;;;;;13.04;58.87;99997.16;4969453;28;20054;-43
2023/07/21 00:41:49;;;;;;;9.55;4.05;;;;;;;13.01;58.26;99992.03;4973911;28;20138;-46
2023/07/21 00:44:16;;;;;;;11.82;4.05;;;;;;;12.98;58.24;99997.25;4970687;28;20050;-45
2023/07/21 00:46:43;;;;;;;11.38;4.20;;;;;;;12.97;58.39;99995.53;4975503;28;20054;-44
2023/07/21 00:49:10;;;;;;;14.32;3.80;;;;;;;12.92;59.14;99982.59;4969167;28;20070;-46
2023/07/21 00:51:37;;;;;;;8.57;4.00;;;;;;;12.92;58.74;99992.13;4979138;28;20070;-42
2023/07/21 00:54:04;;;;;;;13.05;4.07;;;;;;;12.88;59.32;99996.53;4974331;28;20057;-43
2023/07/21 00:56:32;;;;;;;13.52;4.90;;;;;;;12.85;58.24;99987.03;4971838;28;20046;-42
2023/07/21 00:59:00;;;;;;;12.20;4.97;;;;;;;12.81;58.40;99987.94;4974131;28;20050;-43
2023/07/21 01:01:27;;;;;;;15.00;5.00;;;;;;;12.77;59.33;99985.41;4971906;28;20370;-44
2023/07/21 01:03:54;;;;;;;15.95;5.60;;;;;;;12.73;59.88;99982.84;4976642;28;20046;-44
2023/07/21 01:06:26;;;;;;;14.18;4.85;;;;;;;12.70;58.76;99982.03;5011652;28;20125;-43
2023/07/21 01:08:56;;;;;;;11.00;4.07;;;;;;;12.67;59.54;99982.91;4969135;28;20061;-46
2023/07/21 01:11:25;;;;;;;16.20;4.90;;;;;;;12.65;59.06;99978.59;4972325;28;20055;-50
2023/07/21 01:13:54;;;;;;;10.40;4.65;;;;;;;12.61;60.61;99983.00;4982768;28;20149;-45
2023/07/21 01:16:23;;;;;;;12.65;5.22;;;;;;;12.59;59.35;99980.41;4976449;28;20046;-48
2023/07/21 01:18:53;;;;;;;13.63;5.38;;;;;;;12.56;59.79;99975.25;4980374;28;20050;-44
2023/07/21 01:21:34;;;;;;;15.55;5.78;;;;;;;12.51;60.24;99969.25;4977402;28;20046;-45
2023/07/21 01:24:08;;;;;;;16.63;5.80;;;;;;;12.48;59.95;99974.47;4982654;28;20054;-45
2023/07/21 01:26:37;;;;;;;17.10;6.10;;;;;;;12.46;59.98;99971.91;4985684;28;20488;-45
2023/07/21 01:29:05;;;;;;;17.40;5.90;;;;;;;12.45;59.95;99966.72;4974111;28;20463;-44
2023/07/21 01:31:35;;;;;;;12.15;5.28;;;;;;;12.42;60.47;99956.38;4985495;28;20051;-42
2023/07/21 01:34:03;;;;;;;16.00;5.72;;;;;;;12.40;59.96;99960.72;4982065;28;20057;-43
2023/07/21 01:36:30;;;;;;;12.73;4.85;;;;;;;12.38;60.76;99965.06;4979878;28;20057;-44
2023/07/21 01:38:58;;;;;;;11.48;4.57;;;;;;;12.37;60.19;99958.16;4977860;28;20053;-41
2023/07/21 01:41:26;;;;;;;12.15;4.13;;;;;;;12.34;59.89;99965.09;4975986;28;20046;-48
2023/07/21 01:43:53;;;;;;;10.50;4.30;;;;;;;12.32;60.99;99959.06;4975147;28;20601;-40
2023/07/21 01:46:20;;;;;;;12.85;4.78;;;;;;;12.30;60.53;99952.19;4984062;28;20120;-43
2023/07/21 01:48:47;;;;;;;13.13;4.60;;;;;;;12.29;60.71;99959.09;4972086;28;20054;-42
2023/07/21 01:51:18;;;;;;;14.93;4.55;;;;;;;12.27;60.41;99953.09;4980400;28;20054;-42
2023/07/21 01:53:51;;;;;;;13.25;5.18;;;;;;;12.25;61.40;99954.81;4973632;28;20545;-43
2023/07/21 01:56:28;;;;;;;11.35;4.65;;;;;;;12.22;60.44;99949.66;4975952;28;20128;-42
2023/07/21 01:58:59;;;;;;;11.57;4.32;;;;;;;12.20;61.48;99957.47;4982983;28;20054;-45
2023/07/21 02:01:28;;;;;;;13.68;4.80;;;;;;;12.18;60.98;99955.75;4982145;28;20046;-46
2023/07/21 02:03:55;;;;;;;13.77;5.60;;;;;;;12.15;61.49;99948.88;4969840;28;20075;-45
2023/07/21 02:06:22;;;;;;;13.35;4.95;;;;;;;12.13;60.78;99944.59;4986795;28;20366;-48
2023/07/21 02:08:49;;;;;;;15.18;5.70;;;;;;;12.12;61.16;99945.47;4980291;28;20454;-43
2023/07/21 02:11:20;;;;;;;15.25;5.22;;;;;;;12.12;60.67;99940.28;4980302;28;20048;-42
2023/07/21 02:13:47;;;;;;;13.45;5.03;;;;;;;12.10;61.20;99939.41;4968285;28;20181;-42
2023/07/21 02:16:13;;;;;;;13.75;5.40;;;;;;;12.11;61.11;99941.13;4971306;28;20057;-46
2023/07/21 02:18:42;;;;;;;14.20;5.63;;;;;;;12.08;62.04;99942.03;4982266;28;20520;-43
2023/07/21 02:21:09;;;;;;;12.25;5.07;;;;;;;12.08;61.81;99935.13;4976178;28;20587;-46
2023/07/21 02:23:35;;;;;;;14.70;5.03;;;;;;;12.06;61.32;99939.44;4985002;28;20060;-43
2023/07/21 02:26:02;;;;;;;14.40;4.95;;;;;;;12.05;62.46;99932.50;4979032;28;20105;-43
2023/07/21 02:28:29;;;;;;;14.23;5.38;;;;;;;12.05;61.67;99934.22;4984398;28;20406;-44
2023/07/21 02:31:02;;;;;;;13.90;5.18;;;;;;;12.05;61.85;99944.63;4978077;28;20042;-43
2023/07/21 02:33:30;;;;;;;15.52;4.85;;;;;;;12.03;62.36;99943.78;4971534;28;20077;-44
2023/07/21 02:35:59;;;;;;;14.50;4.90;;;;;;;12.02;61.96;99942.91;4974667;28;20066;-41
2023/07/21 02:38:26;;;;;;;13.20;4.50;;;;;;;12.00;62.29;99944.69;4970415;28;20718;-45
2023/07/21 02:40:54;;;;;;;15.77;5.70;;;;;;;11.99;62.38;99937.75;4972971;28;20072;-43
2023/07/21 02:43:22;;;;;;;17.02;5.50;;;;;;;11.99;61.74;99940.34;4972476;28;20414;-43
2023/07/21 02:45:51;;;;;;;13.60;5.00;;;;;;;11.96;62.24;99933.47;4972844;28;20053;-49
2023/07/21 02:48:18;;;;;;;14.57;5.05;;;;;;;11.94;62.38;99935.22;4972663;28;20043;-46
2023/07/21 02:50:49;;;;;;;13.13;5.03;;;;;;;11.93;61.72;99937.84;4967930;28;20054;-41
2023/07/21 02:53:16;;;;;;;19.30;5.97;;;;;;;11.89;61.75;99930.97;4976856;28;20407;-47
2023/07/21 02:55:44;;;;;;;13.70;5.13;;;;;;;11.87;62.16;99933.56;4977004;28;20053;-46
2023/07/21 02:58:12;;;;;;;13.73;4.82;;;;;;;11.86;62.27;99936.16;4979765;28;20039;-42
2023/07/21 03:00:41;;;;;;;14.02;5.25;;;;;;;11.82;62.92;99936.19;4974970;28;20157;-43
2023/07/21 03:03:18;;;;;;;16.63;4.97;;;;;;;11.81;63.04;99928.41;4978185;28;20053;-48
2023/07/21 03:05:45;;;;;;;15.77;5.45;;;;;;;11.78;62.81;99929.31;4980608;28;20141;-42
2023/07/21 03:08:14;;;;;;;13.35;5.88;;;;;;;11.77;62.21;99931.91;4985399;28;20046;-44
2023/07/21 03:10:41;;;;;;;16.08;5.10;;;;;;;11.75;62.42;99924.16;4975293;28;20138;-47
2023/07/21 03:13:08;;;;;;;14.55;5.68;;;;;;;11.75;61.83;99929.34;4974101;28;20043;-42
2023/07/21 03:15:34;;;;;;;13.23;5.03;;;;;;;11.72;62.08;99929.38;4973148;28;20078;-43
2023/07/21 03:18:01;;;;;;;15.07;5.05;;;;;;;11.71;62.07;99930.25;4982609;28;20073;-44
2023/07/21 03:20:28;;;;;;;13.05;5.10;;;;;;;11.70;62.91;99931.13;4978909;28;20047;-42
2023/07/21 03:22:55;;;;;;;12.60;4.68;;;;;;;11.70;62.00;99936.31;4981786;28;20051;-44
2023/07/21 03:25:21;;;;;;;16.13;5.22;;;;;;;11.66;61.70;99924.25;4969894;28;20050;-46
2023/07/21 03:27:48;;;;;;;15.52;5.13;;;;;;;11.66;62.98;99934.63;4975008;28;20053;-43
2023/07/21 03:30:15;;;;;;;12.65;4.47;;;;;;;11.64;62.51;99923.38;4974097;28;20053;-44
2023/07/21 03:32:45;;;;;;;15.05;5.22;;;;;;;11.62;63.01;99927.75;4964819;28;20435;-43
2023/07/21 03:35:12;;;;;;;13.88;4.35;;;;;;;11.59;63.29;99922.59;4981533;28;20070;-43
2023/07/21 03:37:39;;;;;;;12.43;4.95;;;;;;;11.56;62.56;99923.47;4976280;28;20057;-45
2023/07/21 03:40:07;;;;;;;11.95;5.07;;;;;;;11.53;62.28;99919.19;4972548;28;20046;-42
2023/07/21 03:42:35;;;;;;;14.35;4.85;;;;;;;11.51;63.04;99925.22;4971781;28;20049;-44
2023/07/21 03:45:06;;;;;;;12.27;4.30;;;;;;;11.49;62.50;99921.81;4966255;28;20087;-44
2023/07/21 03:47:34;;;;;;;11.75;4.80;;;;;;;11.46;63.48;99925.28;4979198;28;20710;-44
2023/07/21 03:50:02;;;;;;;13.73;5.13;;;;;;;11.45;62.69;99923.53;4973133;28;20043;-43
2023/07/21 03:52:29;;;;;;;15.32;4.72;;;;;;;11.44;63.02;99919.25;4974204;28;20046;-44
2023/07/21 03:54:56;;;;;;;14.20;5.18;;;;;;;11.43;63.21;99923.59;4977349;28;20058;-49
2023/07/21 03:57:22;;;;;;;12.90;5.10;;;;;;;11.42;62.17;99918.41;4968707;28;20569;-45
2023/07/21 03:59:49;;;;;;;14.00;5.18;;;;;;;11.41;62.54;99919.25;4975615;28;20057;-45
2023/07/21 04:02:17;;;;;;;13.68;5.13;;;;;;;11.41;62.49;99914.06;4976788;28;20047;-45
2023/07/21 04:04:45;;;;;;;13.40;5.07;;;;;;;11.40;63.38;99923.59;4975861;28;20047;-42
2023/07/21 04:07:12;;;;;;;12.07;4.35;;;;;;;11.40;62.67;99915.81;4978596;28;20043;-47
2023/07/21 04:09:39;;;;;;;14.18;5.00;;;;;;;11.39;62.90;99916.69;4968015;28;20065;-45
2023/07/21 04:12:07;;;;;;;13.57;4.63;;;;;;;11.40;63.66;99912.38;4971487;28;20125;-43
2023/07/21 04:14:34;;;;;;;16.17;5.35;;;;;;;11.39;62.72;99919.28;4973324;28;20133;-45
2023/07/21 04:17:01;;;;;;;16.85;4.82;;;;;;;11.41;63.62;99921.84;4979722;28;20051;-45
2023/07/21 04:19:27;;;;;;;27.00;6.72;;;;;;;11.41;62.74;99919.25;4974502;28;20097;-44
2023/07/21 04:21:54;;;;;;;16.13;5.30;;;;;;;11.42;63.05;99923.59;4968770;28;20050;-43
2023/07/21 04:24:21;;;;;;;12.80;5.05;;;;;;;11.43;63.49;99923.59;4969749;28;20058;-41
2023/07/21 04:26:48;;;;;;;12.65;4.90;;;;;;;11.43;62.80;99923.59;4968762;28;20738;-46
2023/07/21 04:29:14;;;;;;;14.07;4.72;;;;;;;11.45;63.34;99915.75;4977364;28;20058;-45
2023/07/21 04:32:01;;;;;;;12.95;5.20;;;;;;;11.49;63.08;99921.81;4979353;28;21399;-43
2023/07/21 04:34:27;;;;;;;14.45;4.80;;;;;;;11.51;62.96;99920.03;4974405;28;20042;-44
2023/07/21 04:36:54;;;;;;;14.07;4.63;;;;;;;11.53;63.50;99919.19;4983539;28;20364;-44
2023/07/21 04:39:21;;;;;;;12.20;4.32;;;;;;;11.56;62.63;99924.31;4945474;28;20066;-46
2023/07/21 04:41:47;;;;;;;15.00;4.90;;;;;;;11.59;64.20;99927.78;4970186;28;20051;-45
2023/07/21 04:44:15;;;;;;;15.68;4.93;;;;;;;11.61;64.15;99920.81;4973334;28;20495;-45
2023/07/21 04:46:42;;;;;;;14.00;5.80;;;;;;;11.63;63.60;99919.09;4982309;28;20098;-47
2023/07/21 04:49:09;;;;;;;12.48;5.00;;;;;;;11.64;63.58;99920.78;4969901;28;20055;-44
2023/07/21 04:51:36;;;;;;;14.88;4.80;;;;;;;11.65;63.31;99913.00;4975916;28;20046;-43
2023/07/21 04:54:03;;;;;;;12.80;5.65;;;;;;;11.68;63.87;99922.47;4980674;28;20050;-45
2023/07/21 04:56:30;;;;;;;11.27;4.82;;;;;;;11.70;63.35;99905.19;4975903;28;20174;-44
2023/07/21 04:58:57;;;;;;;13.93;4.97;;;;;;;11.74;64.38;99906.88;4979251;28;20046;-47
2023/07/21 05:01:23;;;;;;;13.13;4.93;;;;;;;11.78;63.32;99918.94;4981362;28;20074;-47
2023/07/21 05:03:50;;;;;;;14.23;4.75;;;;;;;11.80;63.88;99911.16;4970755;28;20058;-44
2023/07/21 05:06:17;;;;;;;13.85;4.88;;;;;;;11.87;63.41;99915.41;4980191;28;20537;-47
2023/07/21 05:08:44;;;;;;;13.13;5.00;;;;;;;11.92;64.15;99916.19;4978181;28;20086;-43
2023/07/21 05:11:11;;;;;;;18.33;5.47;;;;;;;12.01;64.33;99909.19;4981950;28;20050;-50
2023/07/21 05:13:37;;;;;;;13.98;5.45;;;;;;;12.08;64.29;99906.56;5009581;28;20049;-40
2023/07/21 05:16:04;;;;;;;14.60;5.43;;;;;;;12.18;64.13;99914.22;4967392;28;20137;-47
2023/07/21 05:18:31;;;;;;;16.65;4.90;;;;;;;12.27;63.71;99906.34;4969481;28;20053;-47
2023/07/21 05:20:58;;;;;;;15.40;5.63;;;;;;;12.36;64.19;99905.34;4977482;28;20054;-44
2023/07/21 05:23:25;;;;;;;16.48;5.70;;;;;;;12.44;64.02;99902.66;4978180;28;20051;-44
2023/07/21 05:26:00;;;;;;;16.40;5.20;;;;;;;12.55;63.60;99900.78;4973087;28;20058;-45
2023/07/21 05:28:28;;;;;;;15.18;5.88;;;;;;;12.68;64.48;99904.09;4980128;28;20216;-43
2023/07/21 05:30:56;;;;;;;15.02;5.38;;;;;;;12.79;64.25;99903.94;4978871;28;20047;-45
2023/07/21 05:33:23;;;;;;;14.65;5.90;;;;;;;12.92;64.25;99898.53;4973892;28;20050;-42
2023/07/21 05:35:50;;;;;;;14.88;6.55;;;;;;;13.06;64.06;99899.19;4973955;28;20078;-43
2023/07/21 05:38:17;;;;;;;15.38;5.32;;;;;;;13.18;63.82;99905.09;4976944;28;20053;-47
2023/07/21 05:40:43;;;;;;;15.88;6.15;;;;;;;13.26;64.57;99898.03;4975326;28;20570;-45
2023/07/21 05:43:10;;;;;;;12.18;4.70;;;;;;;13.33;63.78;99902.25;4978150;28;20042;-45
2023/07/21 05:45:38;;;;;;;13.90;5.90;;;;;;;13.42;63.49;99902.97;4975380;28;20415;-47
2023/07/21 05:48:05;;;;;;;13.15;5.65;;;;;;;13.50;63.40;99901.13;4976041;28;20626;-47
2023/07/21 05:50:37;;;;;;;14.02;5.15;;;;;;;13.58;64.05;99899.25;4974240;28;20068;-45
2023/07/21 05:53:04;;;;;;;15.48;5.90;;;;;;;13.66;63.33;99900.84;4970766;28;20052;-46
2023/07/21 05:55:31;;;;;;;13.68;5.35;;;;;;;13.74;63.34;99905.03;4969313;28;20065;-43
2023/07/21 05:57:57;;;;;;;11.95;4.45;;;;;;;13.87;64.28;99905.69;4975281;28;20057;-47
2023/07/21 06:00:25;;;;;;;13.15;5.13;;;;;;;14.00;63.87;99910.66;4975747;28;20051;-44
2023/07/21 06:02:52;;;;;;;14.30;5.32;;;;;;;14.11;63.79;99908.69;4964494;28;20046;-47
2023/07/21 06:05:19;;;;;;;12.50;5.10;;;;;;;14.24;63.59;99913.66;4973574;28;20050;-46
2023/07/21 06:07:46;;;;;;;12.82;5.15;;;;;;;14.33;63.46;99913.50;4976862;28;20060;-46
2023/07/21 06:10:12;;;;;;;11.20;5.10;;;;;;;14.40;63.56;99909.84;4975907;28;20133;-48
2023/07/21 06:12:40;;;;;;;12.30;4.38;;;;;;;14.46;63.71;99908.00;4982238;28;20046;-43
2023/07/21 06:15:08;;;;;;;13.23;5.05;;;;;;;14.48;63.18;99906.22;4970768;28;20050;-47
2023/07/21 06:17:34;;;;;;;14.90;5.45;;;;;;;14.51;63.37;99911.38;4975438;28;20042;-45
2023/07/21 06:20:01;;;;;;;12.80;5.03;;;;;;;14.58;62.93;99912.09;4980591;28;20679;-43
2023/07/21 06:22:28;;;;;;;10.57;4.38;;;;;;;14.61;63.29;99910.28;4970560;28;20550;-48
2023/07/21 06:24:55;;;;;;;11.98;4.72;;;;;;;14.65;63.03;99908.47;4979012;28;20050;-50
2023/07/21 06:27:22;;;;;;;10.90;4.53;;;;;;;14.70;62.90;99905.75;4975501;28;20047;-46
2023/07/21 06:29:48;;;;;;;11.57;4.15;;;;;;;14.76;63.33;99905.63;4975093;28;20050;-45
2023/07/21 06:32:15;;;;;;;12.00;4.65;;;;;;;14.84;62.95;99911.56;4972179;28;20047;-47
2023/07/21 06:34:42;;;;;;;13.45;4.22;;;;;;;14.90;62.03;99911.41;4978626;28;20054;-47
2023/07/21 06:37:08;;;;;;;11.88;5.15;;;;;;;14.95;62.79;99910.44;4973169;28;20046;-42
2023/07/21 06:39:35;;;;;;;12.85;4.68;;;;;;;14.97;62.47;99908.66;5004541;28;20053;-45
2023/07/21 06:42:04;;;;;;;9.55;4.13;;;;;;;14.99;62.49;99902.50;4974780;28;20057;-43
2023/07/21 06:44:31;;;;;;;12.63;4.82;;;;;;;15.01;62.15;99900.75;4980842;28;20074;-41
2023/07/21 06:46:58;;;;;;;13.35;5.05;;;;;;;15.05;62.23;99909.34;4976749;28;20051;-45
2023/07/21 06:49:25;;;;;;;12.88;4.85;;;;;;;15.11;62.54;99909.22;4971240;28;20081;-48
2023/07/21 06:51:52;;;;;;;12.90;4.70;;;;;;;15.19;62.04;99908.16;4976296;28;20058;-47
2023/07/21 06:54:19;;;;;;;11.93;4.82;;;;;;;15.27;62.69;99906.22;4964455;28;20105;-44
2023/07/21 06:56:48;;;;;;;13.82;4.75;;;;;;;15.37;62.14;99907.69;4977142;28;20054;-45
2023/07/21 06:59:15;;;;;;;12.68;4.28;;;;;;;15.42;61.89;99900.63;4971318;28;20059;-45
2023/07/21 07:01:42;;;;;;;10.52;4.30;;;;;;;15.50;61.93;99902.19;4978532;28;20126;-44
2023/07/21 07:04:09;;;;;;;11.15;4.57;;;;;;;15.55;62.12;99897.69;4973614;28;20074;-43
2023/07/21 07:06:36;;;;;;;10.23;4.05;;;;;;;15.73;61.91;99898.09;4973053;28;20573;-43
2023/07/21 07:09:03;;;;;;;12.07;4.70;;;;;;;15.86;62.07;99898.63;4975378;28;20070;-47
2023/07/21 07:11:30;;;;;;;13.00;4.95;;;;;;;15.98;61.45;99903.56;4979345;28;20050;-46
2023/07/21 07:13:56;;;;;;;12.05;4.40;;;;;;;16.09;61.43;99902.38;4975775;28;20128;-44
2023/07/21 07:16:23;;;;;;;11.43;4.85;;;;;;;16.18;61.46;99905.59;4981302;28;20667;-47
2023/07/21 07:18:50;;;;;;;10.65;4.32;;;;;;;16.24;61.47;99912.41;4972012;28;20057;-45
2023/07/21 07:21:17;;;;;;;12.10;4.63;;;;;;;16.29;60.93;99909.66;4981354;28;20431;-48
2023/07/21 07:23:43;;;;;;;10.27;4.20;;;;;;;16.30;60.91;99914.00;4972002;28;20042;-44
2023/07/21 07:26:10;;;;;;;10.05;4.50;;;;;;;16.27;61.09;99914.06;4972297;28;20051;-46
2023/07/21 07:28:38;;;;;;;10.73;4.45;;;;;;;16.29;60.62;99917.50;4971121;28;20046;-42
2023/07/21 07:31:06;;;;;;;12.38;5.68;;;;;;;16.28;60.64;99915.81;4973292;28;20070;-48
2023/07/21 07:33:33;;;;;;;10.15;4.00;;;;;;;16.26;61.10;99917.59;4986132;28;20499;-44
2023/07/21 07:36:00;;;;;;;10.05;4.22;;;;;;;16.24;61.17;99914.19;4972938;28;20047;-47
2023/07/21 07:38:28;;;;;;;10.35;4.45;;;;;;;16.25;60.58;99921.13;4972844;28;20142;-45
2023/07/21 07:41:05;;;;;;;11.60;4.28;;;;;;;16.24;60.81;99908.97;4971427;28;20042;-42
2023/07/21 07:43:32;;;;;;;12.27;4.80;;;;;;;16.26;61.08;99908.00;4973800;28;20045;-44
2023/07/21 07:46:00;;;;;;;11.82;4.25;;;;;;;16.25;61.00;99910.66;4968517;28;20057;-45
2023/07/21 07:48:28;;;;;;;10.45;3.60;;;;;;;16.26;60.99;99914.97;4976845;28;20046;-44
2023/07/21 07:50:55;;;;;;;10.23;4.22;;;;;;;16.26;60.96;99912.38;4977052;28;20486;-47
2023/07/21 07:53:21;;;;;;;9.25;4.57;;;;;;;16.28;60.94;99906.19;4963920;28;20491;-45
2023/07/21 07:55:48;;;;;;;9.68;4.18;;;;;;;16.31;60.79;99911.34;4972973;28;20121;-43
2023/07/21 07:58:15;;;;;;;9.68;3.65;;;;;;;16.34;61.07;99904.31;4972828;28;20078;-44
2023/07/21 08:00:43;;;;;;;11.65;4.30;;;;;;;16.38;60.63;99909.41;4971402;28;20134;-44
2023/07/21 08:03:10;;;;;;;13.93;4.28;;;;;;;16.47;61.61;99908.28;4971404;28;20077;-45
2023/07/21 08:05:39;;;;;;;10.50;4.13;;;;;;;16.56;60.91;99904.53;4975225;28;20046;-45
2023/07/21 08:08:07;;;;;;;8.18;3.42;;;;;;;16.60;60.96;99900.94;4976914;28;20494;-44
2023/07/21 08:10:38;;;;;;;11.40;3.88;;;;;;;16.72;61.23;99899.69;4981622;28;20108;-43
2023/07/21 08:13:06;;;;;;;8.27;3.53;;;;;;;16.83;61.34;99904.59;4983133;28;20046;-45
2023/07/21 08:15:32;;;;;;;10.00;4.70;;;;;;;16.93;60.87;99911.22;4978713;28;20678;-45
2023/07/21 08:17:59;;;;;;;10.13;3.38;;;;;;;17.06;61.40;99918.75;4973849;28;20150;-45
2023/07/21 08:20:26;;;;;;;9.45;3.92;;;;;;;17.18;61.28;99918.34;4969068;28;20103;-44
2023/07/21 08:22:53;;;;;;;10.40;3.60;;;;;;;17.25;60.75;99915.53;4969565;28;20189;-44
2023/07/21 08:25:20;;;;;;;8.82;3.42;;;;;;;17.38;60.56;99914.22;4972391;28;20050;-45
2023/07/21 08:27:47;;;;;;;9.40;3.40;;;;;;;17.50;60.32;99918.19;4969483;28;20147;-45
2023/07/21 08:30:16;;;;;;;9.32;3.75;;;;;;;17.64;60.76;99920.34;4971339;28;20051;-43
2023/07/21 08:32:43;;;;;;;9.60;3.67;;;;;;;17.84;60.82;99910.94;4974233;28;20062;-44
2023/07/21 08:35:10;;;;;;;10.00;3.35;;;;;;;18.09;60.52;99918.81;4968939;28;20046;-44
2023/07/21 08:37:38;;;;;;;8.75;3.40;;;;;;;18.38;60.56;99921.25;4967356;28;20046;-47
2023/07/21 08:40:07;;;;;;;6.93;3.13;;;;;;;18.71;60.26;99923.50;4969242;28;20051;-45
2023/07/21 08:42:35;;;;;;;9.18;3.97;;;;;;;18.98;59.33;99923.31;4967618;28;20050;-47
2023/07/21 08:45:05;;;;;;;9.68;4.25;;;;;;;19.27;59.64;99921.34;4972199;28;20051;-44
2023/07/21 08:47:32;;;;;;;9.38;3.92;;;;;;;19.71;58.49;99922.16;4968418;28;20138;-45
2023/07/21 08:49:59;;;;;;;6.95;3.60;;;;;;;20.11;58.62;99916.97;4976719;28;20142;-43
2023/07/21 08:52:26;;;;;;;6.88;3.58;;;;;;;20.47;56.98;99922.38;4974188;28;20038;-45
2023/07/21 08:54:54;;;;;;;7.47;3.30;;;;;;;20.60;56.88;99923.50;4969341;28;20097;-45
2023/07/21 08:57:21;;;;;;;7.75;3.92;;;;;;;20.66;56.23;99917.09;4975310;28;20897;-43
2023/07/21 08:59:49;;;;;;;7.43;3.30;;;;;;;20.70;56.26;99916.03;4968816;28;20050;-44
2023/07/21 09:02:16;;;;;;;6.28;2.60;;;;;;;20.80;56.14;99919.06;4963142;28;20487;-46
2023/07/21 09:04:44;;;;;;;7.20;3.28;;;;;;;20.93;55.68;99919.38;4974466;28;20051;-46
2023/07/21 09:07:11;;;;;;;6.53;2.90;;;;;;;21.20;55.53;99911.06;4966608;28;20047;-45
2023/07/21 09:09:37;;;;;;;6.55;2.70;;;;;;;21.30;54.67;99916.72;4968315;28;20521;-46
2023/07/21 09:12:09;;;;;;;5.78;2.55;;;;;;;21.44;53.84;99910.75;4976930;28;20054;-44
2023/07/21 09:17:12;;;;;;;6.55;3.55;;;;;;;22.05;54.04;99910.31;5026345;28;20394;-45
2023/07/21 09:19:42;;;;;;;6.00;2.63;;;;;;;22.24;52.95;99918.09;5006465;28;20046;-45
2023/07/21 09:22:11;;;;;;;4.60;2.58;;;;;;;22.38;52.25;99905.94;5013117;28;20054;-47
2023/07/21 09:24:49;;;;;;;5.22;2.65;;;;;;;22.26;51.27;99905.66;5009016;28;20410;-49
2023/07/21 09:27:18;;;;;;;5.70;2.35;;;;;;;22.14;51.21;99898.44;5007201;28;20169;-45
2023/07/21 09:29:45;;;;;;;6.75;2.60;;;;;;;22.12;51.21;99908.22;5009232;28;20061;-45
2023/07/21 09:32:18;;;;;;;7.45;2.85;;;;;;;22.05;51.34;99908.53;5007692;28;20056;-42
2023/07/21 09:37:38;;;;;;;6.72;2.78;;;;;;;21.58;50.87;99904.78;5043753;28;20755;-49
2023/07/21 09:40:09;;;;;;;4.40;2.25;;;;;;;21.38;51.60;99903.19;5021800;28;20049;-45
2023/07/21 09:42:37;;;;;;;4.93;2.28;;;;;;;21.22;51.57;99898.69;5013659;28;20057;-45
2023/07/21 09:45:05;;;;;;;5.72;2.75;;;;;;;21.08;51.93;99909.03;5019141;28;20082;-43
2023/07/21 09:47:32;;;;;;;5.10;2.35;;;;;;;20.92;51.85;99902.75;5019667;28;20050;-44
2023/07/21 09:49:59;;;;;;;4.05;1.98;;;;;;;20.77;51.72;99899.03;5020169;28;20137;-44
2023/07/21 09:52:27;;;;;;;4.72;2.13;;;;;;;20.65;52.51;99904.88;5023071;28;20053;-46
2023/07/21 09:57:35;;;;;;;4.97;2.80;;;;;;;20.50;52.43;99901.19;5086434;27;20374;-46
2023/07/21 10:00:07;;;;;;;7.15;2.75;;;;;;;20.45;52.37;99898.78;5024678;28;20045;-44
2023/07/21 10:02:36;;;;;;;4.28;2.15;;;;;;;20.41;52.47;99902.47;5042893;28;20060;-47
2023/07/21 10:05:04;;;;;;;5.45;2.33;;;;;;;20.29;52.75;99904.75;5038484;28;20073;-45
2023/07/21 10:07:33;;;;;;;4.15;2.28;;;;;;;20.14;52.25;99900.19;5037649;28;20075;-49
2023/07/21 10:10:01;;;;;;;5.25;2.78;;;;;;;20.04;52.47;99911.09;5043488;28;20057;-46
2023/07/21 10:12:41;;;;;;;7.20;2.58;;;;;;;19.90;52.68;99905.59;5039710;28;20073;-45
2023/07/21 10:15:21;;;;;;;5.50;2.75;;;;;;;19.83;52.89;99906.78;5036668;28;20103;-47
2023/07/21 10:17:57;;;;;;;6.53;2.72;;;;;;;19.75;52.75;99909.72;5036549;28;20111;-46
2023/07/21 10:23:23;;;;;;;6.80;3.47;;;;;;;19.89;53.35;99906.50;5033903;28;20409;-43
2023/07/21 10:28:44;;;;;;;4.15;3.20;;;;;;;20.47;52.43;99902.16;5147061;27;20760;-48
2023/07/21 10:34:24;;;;;;;3.53;2.15;;;;;;;21.16;52.36;99904.25;5105948;27;20730;-48
2023/07/21 10:39:31;;;;;;;3.75;1.80;;;;;;;21.71;50.95;99897.09;5064303;28;20393;-46
2023/07/21 10:42:01;;;;;;;5.70;2.08;;;;;;;21.69;49.39;99898.97;5055158;28;20052;-45
2023/07/21 10:44:47;;;;;;;4.82;2.10;;;;;;;21.42;49.44;99907.34;5028842;28;20056;-49
2023/07/21 10:47:17;;;;;;;4.45;2.38;;;;;;;21.15;49.46;99902.53;5032928;28;20041;-49
2023/07/21 10:49:44;;;;;;;;;;;;;;;20.60;50.73;99912.16;5041743;28;20040;-48
2023/07/21 10:52:11;;;;;;;6.20;2.28;;;;;;;20.37;51.38;99916.69;5058758;28;20010;-43
2023/07/21 10:54:38;;;;;;;8.23;3.42;;;;;;;20.09;51.39;99902.19;5060439;28;20041;-46
2023/07/21 10:57:06;;;;;;;7.38;2.88;;;;;;;19.88;52.10;99915.31;5059919;28;20136;-44
2023/07/21 10:59:36;;;;;;;7.55;3.25;;;;;;;19.69;52.76;99916.09;5060296;28;20051;-47
2023/07/21 11:02:06;;;;;;;6.85;3.83;;;;;;;19.61;52.89;99919.06;5063937;28;20040;-45
2023/07/21 11:04:35;;;;;;;8.77;2.80;;;;;;;19.61;53.31;99919.06;5062046;28;20048;-46
2023/07/21 11:07:03;;;;;;;7.93;3.35;;;;;;;19.70;53.83;99923.06;5062642;28;20041;-45
2023/07/21 11:09:37;;;;;;;8.23;3.53;;;;;;;19.94;53.76;99911.56;5059926;28;20048;-45
2023/07/21 11:12:04;;;;;;;6.07;2.55;;;;;;;20.28;53.46;99905.69;5038790;28;20190;-44
2023/07/21 11:14:31;;;;;;;6.43;3.30;;;;;;;20.62;53.43;99905.00;5061019;28;20060;-46
2023/07/21 11:17:02;;;;;;;8.40;3.47;;;;;;;20.94;52.71;99915.84;5059060;28;20053;-45
2023/07/21 11:19:31;;;;;;;5.15;2.67;;;;;;;21.26;51.73;99905.50;5038162;28;20804;-45
2023/07/21 11:21:58;;;;;;;6.10;2.40;;;;;;;21.43;51.26;99906.41;5062551;28;20507;-46
2023/07/21 11:24:29;;;;;;;6.72;2.22;;;;;;;21.48;50.72;99898.28;5060806;28;20048;-44
2023/07/21 11:27:02;;;;;;;4.78;2.40;;;;;;;21.43;49.97;99901.16;5043189;28;20064;-45
2023/07/21 11:29:34;;;;;;;5.78;2.45;;;;;;;21.40;50.46;99896.03;5052412;28;20049;-47
2023/07/21 11:32:14;;;;;;;3.63;1.52;;;;;;;21.30;49.81;99899.13;5058781;28;20048;-45
2023/07/21 11:34:41;;;;;;;3.20;2.00;;;;;;;21.30;50.24;99900.91;5055455;28;20072;-44
2023/07/21 11:37:09;;;;;;;3.88;2.08;;;;;;;21.39;49.99;99899.59;5058433;28;20434;-46
2023/07/21 11:39:36;;;;;;;4.80;1.83;;;;;;;21.42;49.76;99904.72;5059227;28;20040;-46
2023/07/21 11:42:03;;;;;;;3.75;2.03;;;;;;;21.50;49.83;99907.81;5060816;28;20045;-49
2023/07/21 11:44:32;;;;;;;3.33;1.63;;;;;;;21.55;49.32;99908.41;5061732;28;21405;-44
2023/07/21 11:47:07;;;;;;;4.40;1.60;;;;;;;21.66;49.26;99907.03;5043635;28;20062;-45
2023/07/21 11:52:25;;;;;;;4.70;3.13;;;;;;;21.85;48.57;99906.13;5056494;27;20403;-44